This demonstration page uses our WeatherBlox Daily Observations layout. Learn more.

Left ArrowRight Arrow

Hourly Observations for January 7, 2015

Temp ( °F °C ) Dew Point ( °F °C ) Humidity (%) Winds ( mph kmh ) Pressure ( in mb ) Visibility ( mi km ) Precip ( " mm )
12:52 am 00:52 Cloudy 8 -13.3 -1 -18.3 66 66 N 24 39 30.81 1043 10 16 0.00 0.00
1:52 am 01:52 Cloudy 8 -13.3 -3 -19.4 60 60 N 30 48 30.85 1045 10 16 0.00 0.00
2:21 am 02:21 Cloudy 7 -13.9 -3 -19.4 63 63 N 29 46 30.95 1048 10 16 0.00 0.00
2:52 am 02:52 Cloudy 6 -14.4 -4 -20 63 63 N 24 39 30.91 1047 10 16 0.00 0.00
3:36 am 03:36 Cloudy 5 -15 -6 -21 60 60 N 25 41 30.98 1049 10 16 0.00 0.00
3:52 am 03:52 Cloudy 5 -15 -5 -20.6 63 63 N 20 31 30.94 1048 10 16 0.00 0.00
4:52 am 04:52 Cloudy 4 -15.6 -8 -22.2 57 57 NNW 21 33 30.97 1049 10 16 0.00 0.00
5:52 am 05:52 Cloudy 3 -16.1 -8 -22.2 60 60 N 22 35 31.00 1050 10 16 0.00 0.00
6:52 am 06:52 Partly Cloudy 1 -17.2 -9 -22.8 62 62 NNW 25 41 28.08 951 10 16 0.00 0.00
7:52 am 07:52 Mostly Sunny 0 -17.8 -10 -23.3 62 62 NNW 24 39 28.13 953 10 16 0.00 0.00
8:52 am 08:52 Mostly Sunny 0 -17.8 -10 -23.3 62 62 NNW 21 33 28.17 954 10 16 0.00 0.00
9:52 am 09:52 Mostly Sunny 1 -17.2 -11 -23.9 56 56 NNW 21 33 28.20 955 10 16 0.00 0.00
10:52 am 10:52 Partly Cloudy 2 -16.7 -10 -23.3 57 57 NNW 23 37 28.20 955 10 16 0.00 0.00
11:52 am 11:52 Mostly Sunny 3 -16.1 -9 -22.8 57 57 NW 21 33 28.21 955 10 16 0.00 0.00
12:52 pm 12:52 Mostly Sunny 4 -15.6 -8 -22.2 57 57 NW 17 28 28.17 954 10 16 0.00 0.00
1:52 pm 13:52 Sunny 4 -15.6 -8 -22.2 57 57 NW 16 26 28.15 953 10 16 0.00 0.00
2:52 pm 14:52 Mostly Sunny 5 -15 -9 -22.8 52 52 NNW 15 24 28.14 953 10 16 0.00 0.00
3:52 pm 15:52 Mostly Sunny 4 -15.6 -9 -22.8 54 54 N 12 19 28.14 953 10 16 0.00 0.00
4:52 pm 16:52 Mostly Sunny 2 -16.7 -9 -22.8 59 59 WNW 8 13 28.11 952 10 16 0.00 0.00
5:52 pm 17:52 Mostly Clear -1 -18.3 -10 -23.3 65 65 NW 7 11 28.08 951 10 16 0.00 0.00
6:52 pm 18:52 Mostly Clear 1 -17.2 -9 -22.8 62 62 Calm 28.05 950 10 16 0.00 0.00
7:52 pm 19:52 Partly Cloudy -1 -18.3 -11 -23.9 62 62 SE 3 6 30.95 1048 10 16 0.00 0.00
8:52 pm 20:52 Mostly Cloudy -2 -18.9 -8 -22.2 75 75 SE 5 7 30.90 1047 10 16 0.00 0.00
9:52 pm 21:52 Cloudy 1 -17.2 -7 -21.7 68 68 SSE 7 11 30.85 1045 10 16 0.00 0.00
10:52 pm 22:52 Cloudy 2 -16.7 -6 -21.1 69 69 S 8 13 30.80 1043 10 16 0.00 0.00
11:52 pm 23:52 Cloudy 2 -16.7 -6 -21.1 69 69 SSE 12 19 30.72 1040 10 16 0.00 0.00

Powered by AerisWeather